createdAt,value
2017-11-12T00:01:44.420Z,14.30
2017-11-12T00:04:11.965Z,4.43
2017-11-12T00:06:39.467Z,9.13
2017-11-12T00:09:07.222Z,2.00
2017-11-12T00:11:34.716Z,5.83
2017-11-12T00:14:02.233Z,8.87
2017-11-12T00:16:29.734Z,5.90
2017-11-12T00:18:58.001Z,10.70
2017-11-12T00:21:25.517Z,6.50
2017-11-12T00:23:53.020Z,10.20
2017-11-12T00:26:21.560Z,6.63
2017-11-12T00:28:49.062Z,5.57
2017-11-12T00:31:16.777Z,14.93
2017-11-12T00:33:44.273Z,7.00
2017-11-12T00:36:11.778Z,9.97
2017-11-12T00:38:39.302Z,6.87
2017-11-12T00:41:07.840Z,10.33
2017-11-12T00:43:35.338Z,10.17
2017-11-12T00:46:03.056Z,4.20
2017-11-12T00:48:30.558Z,5.53
2017-11-12T00:50:58.280Z,25.30
2017-11-12T00:53:26.042Z,3.33
2017-11-12T00:55:53.545Z,6.33
2017-11-12T00:58:21.866Z,4.07
2017-11-12T01:00:49.366Z,10.67
2017-11-12T01:03:16.861Z,3.27
2017-11-12T01:05:44.474Z,10.67
2017-11-12T01:08:11.973Z,5.80
2017-11-12T01:10:39.464Z,3.50
2017-11-12T01:13:06.958Z,4.70
2017-11-12T01:15:34.573Z,10.80
2017-11-12T01:18:02.156Z,3.90
2017-11-12T01:20:29.662Z,7.93
2017-11-12T01:22:57.372Z,7.53
2017-11-12T01:25:24.885Z,7.63
2017-11-12T01:27:52.382Z,5.87
2017-11-12T01:30:19.964Z,15.90
2017-11-12T01:32:47.498Z,5.13
2017-11-12T01:35:14.993Z,4.00
2017-11-12T01:37:42.544Z,9.70
2017-11-12T01:40:10.174Z,9.33
2017-11-12T01:42:37.937Z,8.70
2017-11-12T01:45:05.702Z,4.67
2017-11-12T01:47:33.417Z,6.33
2017-11-12T01:50:01.229Z,5.80
2017-11-12T01:52:28.725Z,8.60
2017-11-12T01:54:56.230Z,6.53
2017-11-12T01:57:23.729Z,9.10
2017-11-12T01:59:51.231Z,10.00
2017-11-12T02:02:18.766Z,10.43
2017-11-12T02:04:46.321Z,4.10
2017-11-12T02:07:13.997Z,6.00
2017-11-12T02:09:41.505Z,10.37
2017-11-12T02:12:09.221Z,7.60
2017-11-12T02:14:36.725Z,23.07
2017-11-12T02:17:04.221Z,11.93
2017-11-12T02:19:31.759Z,5.90
2017-11-12T02:21:59.388Z,11.10
2017-11-12T02:24:26.910Z,4.30
2017-11-12T02:26:54.405Z,9.03
2017-11-12T02:29:21.928Z,4.23
2017-11-12T02:31:49.427Z,3.20
2017-11-12T02:34:16.981Z,5.40
2017-11-12T02:36:44.477Z,9.40
2017-11-12T02:39:11.981Z,10.20
2017-11-12T02:41:39.477Z,11.67
2017-11-12T02:44:07.753Z,9.87
2017-11-12T02:46:35.261Z,22.17
2017-11-12T02:49:02.949Z,7.30
2017-11-12T02:51:30.930Z,8.33
2017-11-12T02:53:58.786Z,5.93
2017-11-12T02:56:26.274Z,7.00
2017-11-12T02:58:53.773Z,12.00
2017-11-12T03:01:21.281Z,7.60
2017-11-12T03:03:48.917Z,11.73
2017-11-12T03:06:16.679Z,9.10
2017-11-12T03:08:44.164Z,6.20
2017-11-12T03:11:11.803Z,11.53
2017-11-12T03:13:39.312Z,11.77
2017-11-12T03:16:06.821Z,11.37
2017-11-12T03:18:34.578Z,9.37
2017-11-12T03:21:02.590Z,4.80
2017-11-12T03:23:30.077Z,9.20
2017-11-12T03:25:57.862Z,9.13
2017-11-12T03:28:25.369Z,16.80
2017-11-12T03:30:52.868Z,15.30
2017-11-12T03:33:20.360Z,9.77
2017-11-12T03:35:47.994Z,13.50
2017-11-12T03:38:15.509Z,10.10
2017-11-12T03:40:43.224Z,11.17
2017-11-12T03:43:10.726Z,8.13
2017-11-12T03:45:38.235Z,9.00
2017-11-12T03:48:05.889Z,12.00
2017-11-12T03:50:33.662Z,6.63
2017-11-12T03:53:01.156Z,17.27
2017-11-12T03:55:28.833Z,16.83
2017-11-12T03:57:56.329Z,8.60
2017-11-12T04:00:24.012Z,7.43
2017-11-12T04:02:51.510Z,4.00
2017-11-12T04:05:19.020Z,7.80
2017-11-12T04:07:46.505Z,7.57
2017-11-12T04:10:14.019Z,12.97
2017-11-12T04:12:41.694Z,4.40
2017-11-12T04:15:09.200Z,6.10
2017-11-12T04:17:37.212Z,10.77
2017-11-12T04:20:04.986Z,7.43
2017-11-12T04:22:32.484Z,15.47
2017-11-12T04:25:00.007Z,20.93
2017-11-12T04:27:27.519Z,9.07
2017-11-12T04:29:55.105Z,12.30
2017-11-12T04:32:22.606Z,12.07
2017-11-12T04:34:50.115Z,10.17
2017-11-12T04:37:17.814Z,12.50
2017-11-12T04:39:46.913Z,9.23
2017-11-12T04:42:15.592Z,7.47
2017-11-12T04:44:43.099Z,6.57
2017-11-12T04:47:10.597Z,4.50
2017-11-12T04:49:38.089Z,8.20
2017-11-12T04:52:05.598Z,9.90
2017-11-12T04:54:33.356Z,8.50
2017-11-12T04:57:01.126Z,7.63
2017-11-12T04:59:28.618Z,7.90
2017-11-12T05:01:56.125Z,7.50
2017-11-12T05:04:23.768Z,15.60
2017-11-12T05:06:51.290Z,15.13
2017-11-12T05:09:18.990Z,10.40
2017-11-12T05:11:46.593Z,6.30
2017-11-12T05:14:14.088Z,9.93
2017-11-12T05:16:41.693Z,11.93
2017-11-12T05:19:09.191Z,14.60
2017-11-12T05:21:36.798Z,12.93
2017-11-12T05:24:04.292Z,10.20
2017-11-12T05:26:31.786Z,9.90
2017-11-12T05:28:59.292Z,13.13
2017-11-12T05:31:26.786Z,6.43
2017-11-12T05:33:54.292Z,13.73
2017-11-12T05:36:21.793Z,10.13
2017-11-12T05:38:50.338Z,6.47
2017-11-12T05:41:18.356Z,15.13
2017-11-12T05:43:45.871Z,11.63
2017-11-12T05:46:13.360Z,15.83
2017-11-12T05:48:40.866Z,10.20
2017-11-12T05:51:08.365Z,6.70
2017-11-12T05:53:35.997Z,16.70
2017-11-12T05:56:03.757Z,12.47
2017-11-12T05:58:31.261Z,10.53
2017-11-12T06:00:58.761Z,6.10
2017-11-12T06:03:26.260Z,8.90
2017-11-12T06:05:53.768Z,6.73
2017-11-12T06:08:21.310Z,11.10
2017-11-12T06:10:48.813Z,8.73
2017-11-12T06:13:16.309Z,9.80
2017-11-12T06:15:43.809Z,9.07
2017-11-12T06:18:11.301Z,12.20
2017-11-12T06:20:38.812Z,11.60
2017-11-12T06:23:06.304Z,9.13
2017-11-12T06:25:33.825Z,13.43
2017-11-12T06:28:01.318Z,6.90
2017-11-12T06:30:28.821Z,12.77
2017-11-12T06:32:56.322Z,13.33
2017-11-12T06:35:23.840Z,11.27
2017-11-12T06:37:51.338Z,11.70
2017-11-12T06:40:18.836Z,6.40
2017-11-12T06:42:46.342Z,11.83
2017-11-12T06:45:13.837Z,10.10
2017-11-12T06:47:41.392Z,13.40
2017-11-12T06:50:08.990Z,16.07
2017-11-12T06:52:36.496Z,15.77
2017-11-12T06:55:04.258Z,7.87
2017-11-12T06:57:32.018Z,6.70
2017-11-12T06:59:59.513Z,12.07
2017-11-12T07:02:27.232Z,13.20
2017-11-12T07:04:54.732Z,18.63
2017-11-12T07:07:22.258Z,6.60
2017-11-12T07:09:49.870Z,8.07
2017-11-12T07:12:17.369Z,6.40
2017-11-12T07:14:44.877Z,14.20
2017-11-12T07:17:12.501Z,20.73
2017-11-12T07:19:39.993Z,9.60
2017-11-12T07:22:07.485Z,8.93
2017-11-12T07:24:34.989Z,10.27
2017-11-12T07:27:02.717Z,12.30
2017-11-12T07:29:30.223Z,7.47
2017-11-12T07:31:57.897Z,6.03
2017-11-12T07:34:25.397Z,13.50
2017-11-12T07:36:53.102Z,9.47
2017-11-12T07:39:20.612Z,18.63
2017-11-12T07:41:48.377Z,7.43
2017-11-12T07:44:16.149Z,21.03
2017-11-12T07:46:43.910Z,10.00
2017-11-12T07:49:11.412Z,8.50
2017-11-12T07:51:38.909Z,12.70
2017-11-12T07:54:06.408Z,9.00
2017-11-12T07:56:33.925Z,5.10
2017-11-12T07:59:01.495Z,10.57
2017-11-12T08:01:29.224Z,7.97
2017-11-12T08:03:56.717Z,12.73
2017-11-12T08:06:24.245Z,13.73
2017-11-12T08:08:51.729Z,4.90
2017-11-12T08:11:19.226Z,10.00
2017-11-12T08:13:47.492Z,14.13
2017-11-12T08:16:14.998Z,14.70
2017-11-12T08:18:42.513Z,8.43
2017-11-12T08:21:10.781Z,6.03
2017-11-12T08:23:38.277Z,14.73
2017-11-12T08:26:06.255Z,13.07
2017-11-12T08:28:33.763Z,8.67
2017-11-12T08:31:01.258Z,10.23
2017-11-12T08:33:28.760Z,12.63
2017-11-12T08:35:56.315Z,14.30
2017-11-12T08:38:23.852Z,6.60
2017-11-12T08:40:51.355Z,11.50
2017-11-12T08:43:18.910Z,9.00
2017-11-12T08:45:46.418Z,20.10
2017-11-12T08:48:13.913Z,9.70
2017-11-12T08:50:41.425Z,10.30
2017-11-12T08:53:08.927Z,19.67
2017-11-12T08:55:36.426Z,9.33
2017-11-12T08:58:03.919Z,14.40
2017-11-12T09:00:31.549Z,9.03
2017-11-12T09:02:59.048Z,11.13
2017-11-12T09:05:26.557Z,7.93
2017-11-12T09:07:54.057Z,13.97
2017-11-12T09:10:21.722Z,14.53
2017-11-12T09:12:49.225Z,31.80
2017-11-12T09:15:16.943Z,12.80
2017-11-12T09:17:44.440Z,10.20
2017-11-12T09:20:12.067Z,11.80
2017-11-12T09:22:39.596Z,15.23
2017-11-12T09:25:07.105Z,18.73
2017-11-12T09:27:34.601Z,13.97
2017-11-12T09:30:02.139Z,12.00
2017-11-12T09:32:30.450Z,13.30
2017-11-12T09:34:58.180Z,8.13
2017-11-12T09:37:25.892Z,13.13
2017-11-12T09:39:53.426Z,8.40
2017-11-12T09:42:20.916Z,9.70
2017-11-12T09:44:48.422Z,18.30
2017-11-12T09:47:16.785Z,10.23
2017-11-12T09:49:45.044Z,12.23
2017-11-12T09:52:12.750Z,6.57
2017-11-12T09:54:40.248Z,11.93
2017-11-12T09:57:08.582Z,16.87
2017-11-12T09:59:36.089Z,18.20
2017-11-12T10:02:03.593Z,5.47
2017-11-12T10:04:31.113Z,9.53
2017-11-12T10:06:58.638Z,23.53
2017-11-12T10:09:26.198Z,17.53
2017-11-12T10:11:53.696Z,7.50
2017-11-12T10:14:21.427Z,14.03
2017-11-12T10:16:49.189Z,18.40
2017-11-12T10:19:16.699Z,12.03
2017-11-12T10:21:44.414Z,13.23
2017-11-12T10:24:11.950Z,13.47
2017-11-12T10:26:39.630Z,11.13
2017-11-12T10:29:07.173Z,37.03
2017-11-12T10:31:34.845Z,9.53
2017-11-12T10:34:02.348Z,16.53
2017-11-12T10:36:30.026Z,13.90
2017-11-12T10:38:57.833Z,22.23
2017-11-12T10:41:25.597Z,13.03
2017-11-12T10:43:53.116Z,31.97
2017-11-12T10:46:20.608Z,12.23
2017-11-12T10:48:48.253Z,18.20
2017-11-12T10:51:15.762Z,13.43
2017-11-12T10:53:43.502Z,13.50
2017-11-12T10:56:11.011Z,32.73
2017-11-12T10:58:38.853Z,14.53
2017-11-12T11:01:07.129Z,14.57
2017-11-12T11:03:34.744Z,19.70
2017-11-12T11:06:02.277Z,9.40
2017-11-12T11:08:30.018Z,14.00
2017-11-12T11:10:58.454Z,14.50
2017-11-12T11:13:25.958Z,7.57
2017-11-12T11:15:54.614Z,19.70
2017-11-12T11:18:22.105Z,16.67
2017-11-12T11:20:49.601Z,17.33
2017-11-12T11:23:17.109Z,19.33
2017-11-12T11:25:45.381Z,11.57
2017-11-12T11:28:12.887Z,17.33
2017-11-12T11:30:40.386Z,12.73
2017-11-12T11:33:07.898Z,12.80
2017-11-12T11:35:35.445Z,13.17
2017-11-12T11:38:02.942Z,18.43
2017-11-12T11:40:30.446Z,14.63
2017-11-12T11:42:57.950Z,11.60
2017-11-12T11:45:25.649Z,11.13
2017-11-12T11:47:53.244Z,17.93
2017-11-12T11:50:20.739Z,15.23
2017-11-12T11:52:48.290Z,19.93
2017-11-12T11:55:15.788Z,13.53
2017-11-12T11:57:43.293Z,12.00
2017-11-12T12:00:10.788Z,12.47
2017-11-12T12:02:38.306Z,18.20
2017-11-12T12:05:05.805Z,12.40
2017-11-12T12:07:33.298Z,9.60
2017-11-12T12:10:01.103Z,8.87
2017-11-12T12:12:28.593Z,14.43
2017-11-12T12:14:56.093Z,12.23
2017-11-12T12:17:23.595Z,8.27
2017-11-12T12:19:51.089Z,11.23
2017-11-12T12:22:18.588Z,11.80
2017-11-12T12:24:46.110Z,16.90
2017-11-12T12:27:13.611Z,10.40
2017-11-12T12:29:41.367Z,23.53
2017-11-12T12:32:08.860Z,12.67
2017-11-12T12:34:36.384Z,16.23
2017-11-12T12:37:04.029Z,17.33
2017-11-12T12:39:31.538Z,12.30
2017-11-12T12:41:59.212Z,16.40
2017-11-12T12:44:26.729Z,13.83
2017-11-12T12:46:54.630Z,11.80
2017-11-12T12:49:22.902Z,16.30
2017-11-12T12:51:50.398Z,14.83
2017-11-12T12:54:18.535Z,17.50
2017-11-12T12:56:46.803Z,13.70
2017-11-12T12:59:14.309Z,15.93
2017-11-12T13:01:41.815Z,17.67
2017-11-12T13:04:10.353Z,11.10
2017-11-12T13:06:37.861Z,18.97
2017-11-12T13:09:05.881Z,12.37
2017-11-12T13:11:33.388Z,21.73
2017-11-12T13:14:00.893Z,7.73
2017-11-12T13:16:28.388Z,18.73
2017-11-12T13:18:56.660Z,9.67
2017-11-12T13:21:24.176Z,17.90
2017-11-12T13:23:51.677Z,20.67
2017-11-12T13:26:19.179Z,8.37
2017-11-12T13:28:46.746Z,14.37
2017-11-12T13:31:14.249Z,15.00
2017-11-12T13:33:42.281Z,16.10
2017-11-12T13:36:09.815Z,9.57
2017-11-12T13:38:37.317Z,16.50
2017-11-12T13:41:04.961Z,17.30
2017-11-12T13:43:32.460Z,23.87
2017-11-12T13:45:59.965Z,10.53
2017-11-12T13:48:27.482Z,10.63
2017-11-12T13:50:55.741Z,21.50
2017-11-12T13:53:23.447Z,14.30
2017-11-12T13:55:50.951Z,11.90
2017-11-12T13:58:20.236Z,13.90
2017-11-12T14:00:47.736Z,14.60
2017-11-12T14:03:15.256Z,13.10
2017-11-12T14:05:42.775Z,25.10
2017-11-12T14:08:10.260Z,17.17
2017-11-12T14:10:37.818Z,12.90
2017-11-12T14:13:05.421Z,18.80
2017-11-12T14:15:33.698Z,11.67
2017-11-12T14:18:01.201Z,16.63
2017-11-12T14:20:28.876Z,14.40
2017-11-12T14:22:56.391Z,22.70
2017-11-12T14:25:23.925Z,21.30
2017-11-12T14:27:51.425Z,23.10
2017-11-12T14:30:18.942Z,19.80
2017-11-12T14:32:46.442Z,9.10
2017-11-12T14:35:13.956Z,16.03
2017-11-12T14:37:41.461Z,18.20
2017-11-12T14:40:09.377Z,10.57
2017-11-12T14:42:36.882Z,8.80
2017-11-12T14:45:04.410Z,13.70
2017-11-12T14:47:32.937Z,14.87
2017-11-12T14:50:00.473Z,14.83
2017-11-12T14:52:27.977Z,15.43
2017-11-12T14:54:55.477Z,16.43
2017-11-12T14:57:23.795Z,10.63
2017-11-12T14:59:51.287Z,11.47
2017-11-12T15:02:18.796Z,12.23
2017-11-12T15:04:46.426Z,13.20
2017-11-12T15:07:13.925Z,7.23
2017-11-12T15:09:41.546Z,19.70
2017-11-12T15:12:09.098Z,12.10
2017-11-12T15:14:36.594Z,16.80
2017-11-12T15:17:04.370Z,10.30
2017-11-12T15:19:32.126Z,8.90
2017-11-12T15:21:59.888Z,11.00
2017-11-12T15:24:27.381Z,5.60
2017-11-12T15:26:54.906Z,14.53
2017-11-12T15:29:22.403Z,14.23
2017-11-12T15:31:50.949Z,12.53
2017-11-12T15:34:18.444Z,11.10
2017-11-12T15:36:46.073Z,7.83
2017-11-12T15:39:13.581Z,14.10
2017-11-12T15:41:41.797Z,9.93
2017-11-12T15:44:09.375Z,10.70
2017-11-12T15:46:36.878Z,6.73
2017-11-12T15:49:04.384Z,11.23
2017-11-12T15:51:32.134Z,8.10
2017-11-12T15:53:59.628Z,9.43
2017-11-12T15:56:27.329Z,12.53
2017-11-12T15:58:54.857Z,18.70
2017-11-12T16:01:22.397Z,13.20
2017-11-12T16:03:49.904Z,14.40
2017-11-12T16:06:17.396Z,20.03
2017-11-12T16:08:44.929Z,11.93
2017-11-12T16:11:12.633Z,10.10
2017-11-12T16:13:40.489Z,14.13
2017-11-12T16:16:07.986Z,14.90
2017-11-12T16:18:36.312Z,14.97
2017-11-12T16:21:03.821Z,10.83
2017-11-12T16:23:31.318Z,11.83
2017-11-12T16:25:58.818Z,16.10
2017-11-12T16:28:27.083Z,17.73
2017-11-12T16:30:54.814Z,19.10
2017-11-12T16:33:22.913Z,11.50
2017-11-12T16:35:50.420Z,9.70
2017-11-12T16:38:17.914Z,20.97
2017-11-12T16:40:45.407Z,11.73
2017-11-12T16:43:13.954Z,13.33
2017-11-12T16:45:41.560Z,21.23
2017-11-12T16:48:09.069Z,14.33
2017-11-12T16:50:36.571Z,27.53
2017-11-12T16:53:04.377Z,17.13
2017-11-12T16:55:32.150Z,21.67
2017-11-12T16:57:59.905Z,13.43
2017-11-12T17:00:27.416Z,15.93
2017-11-12T17:02:54.908Z,12.40
2017-11-12T17:05:23.022Z,29.10
2017-11-12T17:07:50.559Z,19.80
2017-11-12T17:10:18.108Z,18.90
2017-11-12T17:12:45.625Z,16.10
2017-11-12T17:15:13.361Z,27.30
2017-11-12T17:17:40.840Z,18.80
2017-11-12T17:20:08.361Z,17.77
2017-11-12T17:22:36.005Z,14.50
2017-11-12T17:25:03.508Z,18.07
2017-11-12T17:27:31.670Z,19.67
2017-11-12T17:29:59.300Z,13.33
2017-11-12T17:32:26.846Z,12.03
2017-11-12T17:34:54.364Z,23.43
2017-11-12T17:37:22.868Z,15.13
2017-11-12T17:39:50.351Z,14.00
2017-11-12T17:42:17.869Z,15.83
2017-11-12T17:44:45.373Z,18.53
2017-11-12T17:47:12.874Z,23.67
2017-11-12T17:49:41.141Z,17.63
2017-11-12T17:52:08.861Z,16.10
2017-11-12T17:54:36.367Z,12.80
2017-11-12T17:57:04.023Z,16.17
2017-11-12T17:59:31.569Z,20.17
2017-11-12T18:01:59.608Z,16.23
2017-11-12T18:04:27.108Z,19.13
2017-11-12T18:06:54.618Z,16.93
2017-11-12T18:09:22.118Z,19.13
2017-11-12T18:11:50.393Z,22.83
2017-11-12T18:14:17.892Z,13.80
2017-11-12T18:16:45.590Z,13.23
2017-11-12T18:19:13.081Z,22.17
2017-11-12T18:21:40.581Z,15.10
2017-11-12T18:24:08.706Z,17.00
2017-11-12T18:26:36.980Z,19.77
2017-11-12T18:29:04.696Z,18.53
2017-11-12T18:31:32.465Z,16.20
2017-11-12T18:33:59.966Z,16.83
2017-11-12T18:36:27.685Z,18.70
2017-11-12T18:38:55.183Z,19.43
2017-11-12T18:41:22.702Z,25.50
2017-11-12T18:43:50.196Z,23.30
2017-11-12T18:46:18.465Z,15.03
2017-11-12T18:48:45.967Z,24.80
2017-11-12T18:51:13.473Z,20.90
2017-11-12T18:53:40.974Z,18.03
2017-11-12T18:56:12.406Z,24.93
2017-11-12T18:58:44.073Z,21.30
2017-11-12T19:01:11.569Z,29.07
2017-11-12T19:03:48.472Z,22.63
2017-11-12T19:06:21.694Z,25.77
2017-11-12T19:09:01.030Z,36.00
2017-11-12T19:11:28.539Z,23.53
2017-11-12T19:13:56.071Z,19.30
2017-11-12T19:16:23.570Z,19.47
2017-11-12T19:19:05.957Z,16.37
2017-11-12T19:21:47.214Z,17.47
2017-11-12T19:24:31.557Z,25.10
2017-11-12T19:26:59.630Z,19.57
2017-11-12T19:29:27.717Z,22.57
2017-11-12T19:31:55.226Z,20.93
2017-11-12T19:34:22.732Z,21.50
2017-11-12T19:36:50.235Z,19.00
2017-11-12T19:39:17.750Z,28.73
2017-11-12T19:41:45.257Z,24.57
2017-11-12T19:44:13.534Z,27.20
2017-11-12T19:46:41.037Z,18.80
2017-11-12T19:49:08.720Z,21.10
2017-11-12T19:51:36.225Z,24.23
2017-11-12T19:54:03.925Z,23.33
2017-11-12T19:56:31.510Z,22.30
2017-11-12T19:58:59.113Z,24.33
2017-11-12T20:01:26.616Z,23.60
2017-11-12T20:03:54.842Z,22.73
2017-11-12T20:06:22.338Z,24.03
2017-11-12T20:08:49.892Z,19.87
2017-11-12T20:11:17.395Z,27.00
2017-11-12T20:13:45.118Z,32.10
2017-11-12T20:16:12.629Z,26.13
2017-11-12T20:18:40.130Z,43.47
2017-11-12T20:21:09.202Z,26.83
2017-11-12T20:23:36.779Z,26.53
2017-11-12T20:26:04.304Z,25.53
2017-11-12T20:28:31.968Z,31.03
2017-11-12T20:30:59.584Z,31.27
2017-11-12T20:33:28.150Z,28.67
2017-11-12T20:35:55.653Z,39.17
2017-11-12T20:38:23.160Z,26.80
2017-11-12T20:40:50.674Z,28.70
2017-11-12T20:43:18.954Z,40.27
2017-11-12T20:45:46.474Z,29.47
2017-11-12T20:48:13.973Z,25.10
2017-11-12T20:50:41.474Z,27.07
2017-11-12T20:53:08.978Z,38.00
2017-11-12T20:55:36.480Z,36.20
2017-11-12T20:58:04.092Z,33.50
2017-11-12T21:00:35.819Z,28.97
2017-11-12T21:03:03.323Z,33.50
2017-11-12T21:05:31.745Z,31.93
2017-11-12T21:07:59.241Z,33.30
2017-11-12T21:10:26.741Z,28.43
2017-11-12T21:12:54.252Z,37.80
2017-11-12T21:15:22.169Z,35.10
2017-11-12T21:17:49.718Z,33.20
2017-11-12T21:20:36.021Z,32.67
2017-11-12T21:23:04.104Z,34.03
2017-11-12T21:25:31.726Z,32.50
2017-11-12T21:27:59.239Z,30.33
2017-11-12T21:30:36.635Z,29.30
2017-11-12T21:33:06.810Z,33.43
2017-11-12T21:35:50.973Z,32.43
2017-11-12T21:38:18.487Z,34.53
2017-11-12T21:40:45.976Z,35.23
2017-11-12T21:43:14.029Z,46.97
2017-11-12T21:45:42.551Z,33.70
2017-11-12T21:48:10.229Z,36.40
2017-11-12T21:50:37.726Z,36.17
2017-11-12T21:53:05.233Z,35.73
2017-11-12T21:55:32.729Z,36.57
2017-11-12T21:58:00.992Z,48.03
2017-11-12T22:00:28.569Z,34.70
2017-11-12T22:02:56.485Z,44.50
2017-11-12T22:05:24.257Z,37.03
2017-11-12T22:07:51.781Z,32.57
2017-11-12T22:10:19.460Z,37.00
2017-11-12T22:12:46.957Z,28.07
2017-11-12T22:15:14.464Z,26.77
2017-11-12T22:17:42.654Z,31.13
2017-11-12T22:20:10.163Z,33.20
2017-11-12T22:22:37.670Z,31.17
2017-11-12T22:25:05.430Z,34.10
2017-11-12T22:27:33.189Z,27.87
2017-11-12T22:30:00.962Z,45.03
2017-11-12T22:32:28.461Z,33.23
2017-11-12T22:34:55.970Z,34.20
2017-11-12T22:37:23.636Z,32.43
2017-11-12T22:39:51.146Z,28.50
2017-11-12T22:42:18.649Z,36.20
2017-11-12T22:44:46.312Z,28.17
2017-11-12T22:47:14.077Z,26.93
2017-11-12T22:49:41.835Z,28.13
2017-11-12T22:52:09.600Z,28.90
2017-11-12T22:54:37.370Z,30.43
2017-11-12T22:57:04.861Z,32.97
2017-11-12T22:59:32.530Z,29.63
2017-11-12T23:02:00.037Z,32.27
2017-11-12T23:04:27.547Z,34.83
2017-11-12T23:06:55.159Z,34.03
2017-11-12T23:09:22.661Z,34.00
2017-11-12T23:11:50.186Z,26.63
2017-11-12T23:14:17.689Z,28.60
2017-11-12T23:16:45.364Z,26.33
2017-11-12T23:19:12.889Z,22.27
2017-11-12T23:21:40.921Z,32.60
2017-11-12T23:24:09.136Z,26.37
2017-11-12T23:26:37.678Z,28.50
2017-11-12T23:29:06.373Z,39.53
2017-11-12T23:31:33.877Z,35.30
2017-11-12T23:34:01.907Z,39.03
2017-11-12T23:36:29.405Z,34.47
2017-11-12T23:38:56.905Z,29.30
2017-11-12T23:41:24.413Z,26.93
2017-11-12T23:43:52.687Z,28.00
2017-11-12T23:46:21.026Z,27.00
2017-11-12T23:48:48.520Z,28.57
2017-11-12T23:51:16.170Z,29.60
2017-11-12T23:53:43.678Z,20.50
2017-11-12T23:56:11.186Z,21.80
2017-11-12T23:58:39.511Z,30.37
